createdAt,value
2023-01-27T00:01:00.029Z,45.91
2023-01-27T00:03:27.366Z,45.94
2023-01-27T00:05:54.885Z,45.92
2023-01-27T00:08:22.155Z,45.69
2023-01-27T00:11:09.660Z,45.58
2023-01-27T00:13:36.866Z,45.76
2023-01-27T00:16:04.699Z,45.67
2023-01-27T00:18:31.928Z,45.65
2023-01-27T00:21:18.385Z,45.94
2023-01-27T00:24:04.346Z,45.99
2023-01-27T00:26:31.887Z,45.90
2023-01-27T00:28:59.090Z,45.77
2023-01-27T00:31:45.494Z,46.02
2023-01-27T00:34:12.888Z,45.75
2023-01-27T00:36:42.320Z,45.72
2023-01-27T00:39:11.361Z,45.58
2023-01-27T00:41:40.364Z,45.99
2023-01-27T00:44:12.815Z,45.78
2023-01-27T00:46:41.863Z,45.73
2023-01-27T00:49:10.588Z,45.81
2023-01-27T00:51:38.291Z,45.77
2023-01-27T00:54:06.356Z,45.91
2023-01-27T00:56:34.506Z,45.80
2023-01-27T00:59:01.864Z,45.73
2023-01-27T01:01:30.224Z,45.92
2023-01-27T01:03:58.861Z,45.67
2023-01-27T01:06:27.586Z,45.87
2023-01-27T01:08:57.005Z,45.71
2023-01-27T01:11:25.662Z,45.66
2023-01-27T01:13:55.559Z,45.46
2023-01-27T01:16:24.760Z,45.62
2023-01-27T01:18:52.040Z,45.57
2023-01-27T01:21:19.522Z,45.64
2023-01-27T01:23:46.848Z,45.41
2023-01-27T01:26:16.420Z,45.63
2023-01-27T01:28:45.207Z,45.67
2023-01-27T01:31:17.682Z,45.70
2023-01-27T01:33:45.651Z,45.78
2023-01-27T01:36:15.980Z,45.43
2023-01-27T01:38:43.743Z,45.43
2023-01-27T01:41:15.156Z,45.54
2023-01-27T01:43:42.678Z,45.30
2023-01-27T01:46:11.502Z,45.78
2023-01-27T01:48:48.429Z,45.38
2023-01-27T01:51:34.810Z,45.46
2023-01-27T01:54:04.519Z,45.56
2023-01-27T01:56:38.091Z,45.23
2023-01-27T01:59:11.553Z,45.34
2023-01-27T02:01:39.030Z,45.36
2023-01-27T02:04:11.889Z,45.25
2023-01-27T02:06:45.603Z,45.10
2023-01-27T02:09:12.868Z,45.38
2023-01-27T02:11:40.512Z,45.20
2023-01-27T02:14:09.013Z,45.23
2023-01-27T02:16:37.327Z,45.09
2023-01-27T02:19:05.861Z,45.20
2023-01-27T02:21:33.632Z,45.39
2023-01-27T02:24:12.163Z,45.19
2023-01-27T02:26:44.642Z,45.30
2023-01-27T02:29:15.105Z,45.43
2023-01-27T02:31:42.868Z,45.09
2023-01-27T02:34:16.641Z,45.22
2023-01-27T02:36:49.628Z,45.12
2023-01-27T02:39:21.887Z,45.28
2023-01-27T02:41:52.476Z,45.04
2023-01-27T02:44:19.705Z,45.17
2023-01-27T02:46:47.208Z,45.20
2023-01-27T02:49:14.986Z,45.16
2023-01-27T02:51:42.668Z,44.94
2023-01-27T02:54:09.940Z,44.98
2023-01-27T02:56:37.395Z,45.25
2023-01-27T02:59:04.819Z,45.20
2023-01-27T03:01:35.462Z,44.97
2023-01-27T03:04:03.728Z,45.21
2023-01-27T03:06:31.227Z,44.85
2023-01-27T03:08:58.415Z,45.03
2023-01-27T03:11:44.676Z,45.19
2023-01-27T03:14:11.940Z,45.08
2023-01-27T03:16:58.107Z,44.87
2023-01-27T03:19:26.693Z,44.96
2023-01-27T03:21:54.582Z,44.82
2023-01-27T03:24:22.380Z,45.15
2023-01-27T03:26:50.235Z,44.68
2023-01-27T03:29:36.091Z,45.05
2023-01-27T03:32:03.710Z,45.09
2023-01-27T03:34:30.981Z,44.97
2023-01-27T03:37:17.484Z,44.68
2023-01-27T03:40:03.353Z,44.82
2023-01-27T03:42:49.359Z,44.92
2023-01-27T03:45:35.873Z,45.09
2023-01-27T03:48:03.405Z,44.88
2023-01-27T03:50:43.452Z,44.74
2023-01-27T03:53:11.385Z,44.83
2023-01-27T03:55:39.192Z,44.86
2023-01-27T03:58:44.535Z,44.80
2023-01-27T04:01:19.000Z,44.64
2023-01-27T04:04:06.435Z,44.90
2023-01-27T04:06:55.131Z,44.71
2023-01-27T04:09:41.028Z,44.77
2023-01-27T04:12:10.302Z,44.74
2023-01-27T04:14:41.927Z,44.97
2023-01-27T04:17:14.368Z,44.69
2023-01-27T04:19:41.985Z,44.84
2023-01-27T04:22:11.218Z,45.07
2023-01-27T04:24:38.819Z,44.82
2023-01-27T04:27:20.158Z,44.83
2023-01-27T04:29:47.867Z,44.75
2023-01-27T04:32:15.266Z,44.63
2023-01-27T04:34:42.802Z,44.49
2023-01-27T04:37:10.433Z,44.78
2023-01-27T04:39:38.334Z,44.54
2023-01-27T04:42:06.003Z,44.48
2023-01-27T04:44:33.599Z,44.64
2023-01-27T04:47:00.842Z,44.77
2023-01-27T04:49:28.332Z,44.53
2023-01-27T04:51:55.822Z,44.75
2023-01-27T04:54:23.406Z,44.68
2023-01-27T04:56:58.812Z,44.51
2023-01-27T04:59:26.570Z,44.81
2023-01-27T05:01:53.874Z,44.64
2023-01-27T05:04:21.583Z,44.75
2023-01-27T05:06:49.103Z,44.33
2023-01-27T05:09:16.654Z,44.43
2023-01-27T05:11:43.891Z,44.43
2023-01-27T05:14:13.881Z,44.49
2023-01-27T05:16:41.188Z,44.27
2023-01-27T05:19:08.923Z,44.39
2023-01-27T05:21:36.411Z,44.50
2023-01-27T05:24:04.112Z,44.48
2023-01-27T05:26:31.438Z,44.42
2023-01-27T05:28:59.043Z,44.47
2023-01-27T05:31:31.752Z,44.61
2023-01-27T05:34:00.852Z,44.25
2023-01-27T05:36:28.771Z,44.58
2023-01-27T05:38:57.701Z,44.49
2023-01-27T05:41:25.098Z,44.29
2023-01-27T05:43:55.033Z,44.25
2023-01-27T05:46:27.828Z,44.30
2023-01-27T05:48:58.861Z,44.33
2023-01-27T05:51:28.615Z,44.19
2023-01-27T05:53:57.257Z,44.16
2023-01-27T05:56:26.384Z,44.19
2023-01-27T05:58:55.328Z,44.19
2023-01-27T06:01:25.419Z,44.12
2023-01-27T06:03:53.644Z,44.40
2023-01-27T06:06:23.608Z,44.25
2023-01-27T06:08:51.589Z,44.57
2023-01-27T06:11:21.056Z,44.80
2023-01-27T06:13:48.868Z,45.49
2023-01-27T06:16:18.147Z,45.87
2023-01-27T06:18:47.183Z,45.83
2023-01-27T06:21:15.700Z,46.34
2023-01-27T06:23:43.229Z,46.54
2023-01-27T06:26:16.509Z,46.59
2023-01-27T06:28:44.229Z,46.40
2023-01-27T06:31:14.476Z,47.02
2023-01-27T06:33:42.394Z,46.85
2023-01-27T06:36:16.307Z,46.89
2023-01-27T06:38:44.445Z,46.94
2023-01-27T06:41:11.979Z,47.03
2023-01-27T06:43:40.049Z,47.15
2023-01-27T06:46:07.345Z,46.72
2023-01-27T06:48:35.100Z,46.98
2023-01-27T06:51:02.527Z,47.09
2023-01-27T06:53:32.553Z,47.39
2023-01-27T06:56:00.971Z,47.33
2023-01-27T06:58:29.865Z,47.09
2023-01-27T07:00:57.201Z,47.44
2023-01-27T07:03:24.875Z,47.37
2023-01-27T07:05:53.270Z,47.42
2023-01-27T07:08:21.077Z,47.51
2023-01-27T07:10:48.392Z,47.89
2023-01-27T07:13:16.053Z,47.75
2023-01-27T07:15:43.698Z,47.93
2023-01-27T07:18:13.675Z,47.77
2023-01-27T07:20:41.647Z,47.74
2023-01-27T07:23:10.099Z,47.83
2023-01-27T07:25:37.465Z,48.00
2023-01-27T07:28:05.789Z,47.74
2023-01-27T07:30:34.087Z,47.50
2023-01-27T07:33:10.335Z,47.90
2023-01-27T07:35:39.145Z,48.11
2023-01-27T07:38:07.210Z,47.88
2023-01-27T07:40:35.644Z,48.02
2023-01-27T07:43:03.373Z,47.71
2023-01-27T07:45:30.951Z,47.59
2023-01-27T07:48:06.350Z,47.83
2023-01-27T07:50:34.853Z,47.86
2023-01-27T07:53:04.321Z,47.57
2023-01-27T07:55:32.870Z,47.90
2023-01-27T07:58:00.131Z,48.08
2023-01-27T08:00:28.971Z,48.22
2023-01-27T08:02:58.235Z,47.82
2023-01-27T08:05:26.703Z,47.94
2023-01-27T08:07:57.632Z,47.80
2023-01-27T08:10:26.417Z,47.98
2023-01-27T08:12:53.636Z,47.86
2023-01-27T08:15:22.190Z,47.50
2023-01-27T08:18:07.631Z,47.49
2023-01-27T08:20:35.164Z,47.73
2023-01-27T08:23:02.385Z,47.60
2023-01-27T08:25:29.889Z,47.81
2023-01-27T08:27:57.161Z,47.72
2023-01-27T08:30:25.163Z,47.34
2023-01-27T08:32:53.482Z,47.53
2023-01-27T08:35:21.122Z,47.44
2023-01-27T08:37:48.879Z,47.53
2023-01-27T08:40:17.618Z,47.19
2023-01-27T08:42:44.913Z,47.45
2023-01-27T08:45:12.819Z,47.28
2023-01-27T08:47:40.073Z,47.54
2023-01-27T08:50:08.666Z,47.33
2023-01-27T08:52:35.976Z,47.29
2023-01-27T08:55:03.691Z,47.27
2023-01-27T08:57:32.433Z,46.88
2023-01-27T09:00:00.326Z,47.30
2023-01-27T09:02:27.795Z,47.03
2023-01-27T09:04:55.407Z,47.22
2023-01-27T09:07:22.656Z,47.20
2023-01-27T09:09:51.264Z,47.11
2023-01-27T09:12:23.268Z,46.97
2023-01-27T09:14:50.743Z,46.78
2023-01-27T09:17:19.697Z,46.85
2023-01-27T09:19:47.197Z,46.98
2023-01-27T09:22:14.350Z,46.76
2023-01-27T09:24:41.922Z,46.81
2023-01-27T09:27:09.111Z,47.10
2023-01-27T09:29:36.822Z,46.89
2023-01-27T09:32:04.184Z,47.03
2023-01-27T09:34:31.818Z,46.85
2023-01-27T09:37:05.056Z,46.82
2023-01-27T09:39:36.691Z,46.69
2023-01-27T09:42:14.054Z,46.93
2023-01-27T09:44:57.149Z,46.67
2023-01-27T09:47:59.517Z,46.79
2023-01-27T09:50:43.654Z,46.98
2023-01-27T09:53:29.074Z,46.86
2023-01-27T09:56:20.351Z,46.71
2023-01-27T09:58:56.665Z,46.50
2023-01-27T10:01:45.860Z,46.47
2023-01-27T10:04:36.268Z,46.60
2023-01-27T10:07:32.307Z,46.75
2023-01-27T10:10:02.334Z,46.44
2023-01-27T10:12:37.638Z,46.60
2023-01-27T10:15:24.759Z,46.48
2023-01-27T10:18:03.927Z,46.56
2023-01-27T10:20:37.815Z,46.28
2023-01-27T10:23:05.320Z,46.53
2023-01-27T10:25:35.490Z,46.34
2023-01-27T10:28:15.001Z,46.43
2023-01-27T10:31:02.094Z,46.18
2023-01-27T10:33:39.316Z,46.57
2023-01-27T10:36:18.376Z,46.09
2023-01-27T10:38:46.628Z,46.20
2023-01-27T10:41:36.322Z,46.28
2023-01-27T10:44:12.782Z,45.99
2023-01-27T10:46:58.252Z,45.89
2023-01-27T10:49:32.271Z,45.89
2023-01-27T10:52:09.198Z,46.01
2023-01-27T10:54:44.926Z,46.35
2023-01-27T10:57:18.015Z,46.06
2023-01-27T11:00:18.344Z,46.15
2023-01-27T11:02:54.483Z,45.96
2023-01-27T11:05:28.650Z,46.03
2023-01-27T11:08:06.011Z,45.90
2023-01-27T11:10:38.827Z,45.92
2023-01-27T11:13:09.889Z,46.17
2023-01-27T11:15:38.388Z,45.90
2023-01-27T11:18:18.789Z,46.09
2023-01-27T11:20:54.489Z,45.65
2023-01-27T11:23:27.340Z,45.68
2023-01-27T11:26:26.127Z,45.70
2023-01-27T11:29:14.633Z,45.57
2023-01-27T11:31:55.027Z,45.56
2023-01-27T11:34:46.390Z,45.47
2023-01-27T11:37:18.975Z,45.43
2023-01-27T11:39:46.544Z,45.54
2023-01-27T11:42:15.128Z,45.44
2023-01-27T11:44:43.823Z,45.62
2023-01-27T11:47:26.961Z,45.42
2023-01-27T11:49:56.410Z,45.42
2023-01-27T11:52:28.896Z,45.66
2023-01-27T11:55:07.186Z,45.32
2023-01-27T11:57:38.029Z,45.46
2023-01-27T12:00:12.221Z,45.28
2023-01-27T12:02:50.097Z,45.48
2023-01-27T12:05:21.793Z,45.29
2023-01-27T12:07:56.467Z,45.17
2023-01-27T12:10:44.340Z,45.35
2023-01-27T12:13:20.100Z,45.46
2023-01-27T12:15:58.689Z,45.22
2023-01-27T12:18:26.969Z,45.19
2023-01-27T12:21:03.686Z,45.37
2023-01-27T12:23:36.370Z,45.04
2023-01-27T12:26:08.132Z,45.29
2023-01-27T12:28:43.282Z,45.10
2023-01-27T12:31:20.188Z,45.18
2023-01-27T12:34:02.258Z,45.28
2023-01-27T12:36:36.290Z,44.99
2023-01-27T12:39:03.805Z,45.26
2023-01-27T12:41:33.207Z,45.09
2023-01-27T12:44:18.539Z,45.06
2023-01-27T12:47:27.646Z,44.82
2023-01-27T12:50:22.544Z,45.21
2023-01-27T12:53:00.529Z,45.26
2023-01-27T12:55:38.432Z,44.73
2023-01-27T12:58:05.878Z,45.19
2023-01-27T13:00:34.725Z,45.16
2023-01-27T13:03:11.798Z,44.97
2023-01-27T13:05:42.902Z,44.74
2023-01-27T13:08:17.342Z,44.85
2023-01-27T13:10:59.723Z,44.80
2023-01-27T13:13:29.497Z,44.71
2023-01-27T13:16:06.852Z,44.98
2023-01-27T13:18:38.891Z,44.87
2023-01-27T13:21:18.752Z,44.99
2023-01-27T13:23:48.605Z,44.86
2023-01-27T13:26:21.069Z,44.95
2023-01-27T13:28:58.303Z,44.81
2023-01-27T13:31:42.896Z,44.52
2023-01-27T13:34:16.117Z,44.74
2023-01-27T13:36:56.698Z,44.56
2023-01-27T13:39:28.397Z,44.76
2023-01-27T13:42:05.150Z,44.63
2023-01-27T13:44:44.770Z,44.77
2023-01-27T13:47:47.149Z,44.66
2023-01-27T13:50:24.102Z,44.38
2023-01-27T13:52:55.482Z,44.71
2023-01-27T13:55:47.295Z,44.71
2023-01-27T13:58:44.428Z,44.52
2023-01-27T14:01:26.966Z,44.22
2023-01-27T14:04:16.343Z,44.45
2023-01-27T14:06:52.375Z,44.53
2023-01-27T14:09:30.019Z,44.64
2023-01-27T14:12:23.270Z,44.18
2023-01-27T14:15:19.758Z,44.57
2023-01-27T14:18:23.484Z,44.30
2023-01-27T14:21:14.089Z,44.54
2023-01-27T14:24:04.736Z,44.38
2023-01-27T14:26:43.708Z,44.46
2023-01-27T14:29:14.658Z,44.08
2023-01-27T14:31:54.263Z,44.21
2023-01-27T14:34:21.462Z,44.16
2023-01-27T14:36:55.806Z,44.28
2023-01-27T14:39:29.025Z,44.34
2023-01-27T14:42:14.099Z,44.10
2023-01-27T14:45:04.464Z,44.14
2023-01-27T14:48:10.884Z,44.24
2023-01-27T14:51:07.952Z,44.02
2023-01-27T14:53:59.423Z,44.18
2023-01-27T14:56:58.628Z,43.97
2023-01-27T14:59:52.273Z,44.16
2023-01-27T15:02:28.514Z,44.10
2023-01-27T15:05:08.408Z,43.78
2023-01-27T15:08:02.143Z,44.03
2023-01-27T15:10:32.137Z,44.11
2023-01-27T15:13:38.079Z,43.99
2023-01-27T15:16:33.481Z,43.83
2023-01-27T15:19:47.375Z,43.95
2023-01-27T15:22:30.825Z,44.13
2023-01-27T15:25:13.564Z,44.06
2023-01-27T15:27:42.292Z,44.31
2023-01-27T15:30:27.837Z,44.14
2023-01-27T15:32:55.557Z,43.90
2023-01-27T15:35:26.315Z,43.99
2023-01-27T15:38:01.180Z,43.69
2023-01-27T15:40:28.652Z,44.00
2023-01-27T15:43:00.530Z,44.01
2023-01-27T15:45:39.164Z,43.90
2023-01-27T15:48:13.502Z,43.62
2023-01-27T15:51:07.826Z,43.84
2023-01-27T15:53:38.651Z,43.34
2023-01-27T15:56:06.547Z,43.60
2023-01-27T15:58:39.707Z,43.34
2023-01-27T16:01:23.299Z,43.36
2023-01-27T16:03:53.060Z,43.40
2023-01-27T16:06:25.528Z,43.35
2023-01-27T16:09:06.405Z,43.46
2023-01-27T16:11:33.634Z,43.27
2023-01-27T16:14:13.675Z,43.27
2023-01-27T16:16:45.570Z,43.34
2023-01-27T16:19:23.018Z,43.24
2023-01-27T16:22:06.162Z,43.30
2023-01-27T16:24:41.337Z,43.50
2023-01-27T16:27:22.341Z,43.24
2023-01-27T16:30:19.747Z,43.33
2023-01-27T16:33:16.369Z,43.13
2023-01-27T16:35:58.182Z,43.07
2023-01-27T16:38:57.701Z,42.98
2023-01-27T16:41:28.672Z,43.26
2023-01-27T16:44:04.103Z,42.70
2023-01-27T16:46:41.735Z,42.90
2023-01-27T16:49:32.783Z,43.34
2023-01-27T16:52:03.699Z,43.02
2023-01-27T16:54:37.701Z,43.26
2023-01-27T16:57:07.410Z,43.27
2023-01-27T16:59:38.348Z,43.08
2023-01-27T17:02:20.047Z,43.26
2023-01-27T17:04:53.911Z,43.42
2023-01-27T17:07:21.664Z,42.99
2023-01-27T17:09:55.603Z,43.14
2023-01-27T17:12:28.986Z,42.93
2023-01-27T17:14:58.064Z,42.64
2023-01-27T17:17:28.750Z,42.59
2023-01-27T17:20:04.227Z,43.34
2023-01-27T17:22:39.261Z,43.10
2023-01-27T17:25:15.123Z,42.61
2023-01-27T17:27:44.862Z,42.97
2023-01-27T17:30:18.320Z,42.82
2023-01-27T17:32:49.379Z,43.03
2023-01-27T17:35:21.404Z,42.91
2023-01-27T17:37:49.738Z,42.88
2023-01-27T17:40:22.562Z,42.93
2023-01-27T17:42:50.193Z,42.89
2023-01-27T17:45:34.747Z,43.34
2023-01-27T17:48:02.285Z,43.08
2023-01-27T17:50:37.887Z,42.68
2023-01-27T17:53:11.421Z,42.85
2023-01-27T17:55:39.422Z,42.67
2023-01-27T17:58:16.548Z,42.63
2023-01-27T18:00:45.689Z,42.50
2023-01-27T18:03:25.439Z,42.88
2023-01-27T18:05:54.723Z,42.83
2023-01-27T18:08:23.668Z,42.75
2023-01-27T18:10:51.521Z,42.64
2023-01-27T18:13:19.010Z,42.46
2023-01-27T18:15:51.978Z,42.76
2023-01-27T18:18:21.527Z,42.30
2023-01-27T18:20:53.768Z,42.31
2023-01-27T18:23:35.788Z,42.44
2023-01-27T18:26:07.933Z,42.53
2023-01-27T18:28:38.059Z,42.54
2023-01-27T18:31:13.609Z,42.58
2023-01-27T18:33:42.989Z,42.41
2023-01-27T18:36:24.828Z,42.44
2023-01-27T18:38:54.341Z,42.57
2023-01-27T18:41:27.348Z,42.36
2023-01-27T18:43:55.579Z,42.14
2023-01-27T18:46:25.223Z,42.37
2023-01-27T18:48:54.137Z,42.20
2023-01-27T18:51:21.668Z,42.14
2023-01-27T18:53:49.418Z,42.50
2023-01-27T18:56:16.779Z,42.15
2023-01-27T18:58:44.288Z,42.42
2023-01-27T19:01:19.922Z,42.36
2023-01-27T19:03:47.588Z,42.54
2023-01-27T19:06:18.965Z,42.41
2023-01-27T19:08:48.890Z,42.05
2023-01-27T19:11:16.668Z,42.04
2023-01-27T19:13:45.204Z,42.09
2023-01-27T19:16:16.072Z,42.39
2023-01-27T19:18:44.886Z,42.39
2023-01-27T19:21:16.822Z,42.19
2023-01-27T19:23:44.440Z,42.02
2023-01-27T19:26:17.635Z,41.98
2023-01-27T19:28:52.265Z,41.86
2023-01-27T19:31:19.927Z,41.77
2023-01-27T19:33:47.597Z,41.82
2023-01-27T19:36:21.680Z,42.04
2023-01-27T19:38:55.067Z,41.92
2023-01-27T19:41:22.344Z,42.17
2023-01-27T19:43:50.475Z,42.01
2023-01-27T19:46:22.070Z,41.73
2023-01-27T19:48:49.859Z,41.83
2023-01-27T19:51:17.925Z,42.06
2023-01-27T19:53:46.602Z,41.49
2023-01-27T19:56:19.709Z,41.53
2023-01-27T19:58:52.645Z,41.71
2023-01-27T20:01:22.327Z,41.81
2023-01-27T20:03:50.765Z,41.62
2023-01-27T20:06:23.328Z,41.71
2023-01-27T20:08:54.396Z,41.68
2023-01-27T20:11:36.761Z,42.10
2023-01-27T20:14:19.218Z,42.02
2023-01-27T20:16:47.091Z,41.50
2023-01-27T20:19:16.328Z,41.70
2023-01-27T20:21:45.661Z,41.54
2023-01-27T20:24:18.390Z,42.00
2023-01-27T20:26:46.048Z,42.01
2023-01-27T20:29:14.133Z,41.70
2023-01-27T20:31:42.311Z,41.73
2023-01-27T20:34:09.910Z,41.74
2023-01-27T20:36:37.188Z,41.96
2023-01-27T20:39:04.737Z,41.85
2023-01-27T20:41:32.121Z,41.78
2023-01-27T20:44:02.796Z,41.70
2023-01-27T20:46:30.642Z,41.70
2023-01-27T20:48:59.524Z,41.49
2023-01-27T20:51:26.866Z,42.42
2023-01-27T20:53:54.876Z,44.08
2023-01-27T20:56:24.134Z,45.20
2023-01-27T20:58:52.140Z,45.34
2023-01-27T21:01:21.903Z,45.79
2023-01-27T21:03:50.532Z,45.72
2023-01-27T21:06:20.021Z,45.56
2023-01-27T21:08:49.487Z,45.91
2023-01-27T21:11:18.618Z,45.99
2023-01-27T21:13:47.535Z,45.85
2023-01-27T21:16:15.015Z,45.90
2023-01-27T21:18:44.126Z,45.88
2023-01-27T21:21:28.392Z,45.87
2023-01-27T21:23:57.626Z,45.78
2023-01-27T21:26:24.981Z,45.72
2023-01-27T21:28:53.271Z,45.87
2023-01-27T21:31:24.394Z,45.69
2023-01-27T21:33:52.037Z,46.08
2023-01-27T21:36:19.423Z,45.75
2023-01-27T21:38:47.233Z,45.88
2023-01-27T21:41:36.316Z,46.02
2023-01-27T21:44:24.371Z,45.54
2023-01-27T21:46:51.691Z,45.89
2023-01-27T21:49:19.247Z,45.76
2023-01-27T21:51:48.631Z,46.04
2023-01-27T21:54:17.393Z,45.79
2023-01-27T21:56:44.571Z,45.72
2023-01-27T21:59:12.141Z,45.72
2023-01-27T22:01:39.777Z,45.52
2023-01-27T22:04:07.299Z,45.74
2023-01-27T22:06:36.653Z,45.70
2023-01-27T22:09:06.207Z,45.75
2023-01-27T22:11:33.603Z,45.65
2023-01-27T22:14:01.137Z,45.37
2023-01-27T22:16:28.451Z,45.76
2023-01-27T22:18:56.883Z,45.76
2023-01-27T22:21:24.319Z,45.55
2023-01-27T22:23:51.934Z,45.42
2023-01-27T22:26:20.705Z,45.23
2023-01-27T22:28:48.449Z,45.24
2023-01-27T22:31:15.851Z,45.39
2023-01-27T22:33:43.377Z,45.36
2023-01-27T22:36:11.683Z,45.38
2023-01-27T22:38:39.377Z,45.39
2023-01-27T22:41:06.639Z,45.09
2023-01-27T22:43:34.219Z,45.33
2023-01-27T22:46:03.421Z,45.28
2023-01-27T22:48:31.328Z,45.31
2023-01-27T22:51:03.451Z,45.13
2023-01-27T22:53:31.491Z,45.19
2023-01-27T22:56:00.477Z,45.12
2023-01-27T22:58:28.024Z,44.95
2023-01-27T23:00:55.806Z,45.18
2023-01-27T23:03:23.718Z,44.92
2023-01-27T23:05:51.154Z,44.96
2023-01-27T23:08:21.505Z,45.00
2023-01-27T23:10:49.665Z,45.05
2023-01-27T23:13:17.211Z,44.89
2023-01-27T23:15:44.428Z,44.64
2023-01-27T23:18:11.922Z,44.65
2023-01-27T23:20:40.356Z,44.83
2023-01-27T23:23:09.434Z,44.48
2023-01-27T23:25:41.188Z,44.91
2023-01-27T23:28:08.658Z,45.03
2023-01-27T23:30:36.596Z,44.96
2023-01-27T23:33:04.138Z,44.62
2023-01-27T23:35:31.365Z,44.49
2023-01-27T23:37:58.986Z,44.75
2023-01-27T23:40:26.204Z,44.42
2023-01-27T23:42:53.692Z,44.76
2023-01-27T23:45:20.889Z,44.56
2023-01-27T23:47:48.370Z,44.61
2023-01-27T23:50:15.862Z,44.29
2023-01-27T23:52:43.307Z,44.29
2023-01-27T23:55:12.971Z,44.43
2023-01-27T23:57:40.861Z,44.44
